sensor_id;sensor_type;location;lat;lon;timestamp;P1;durP1;ratioP1;P2;durP2;ratioP2
26742;SDS011;14341;51.256;22.478;2022-12-10T00:02:22;47.97;;;31.58;;
26742;SDS011;14341;51.256;22.478;2022-12-10T00:05:25;51.13;;;30.88;;
26742;SDS011;14341;51.256;22.478;2022-12-10T00:08:28;49.35;;;31.23;;
26742;SDS011;14341;51.256;22.478;2022-12-10T00:11:34;50.08;;;31.33;;
26742;SDS011;14341;51.256;22.478;2022-12-10T00:14:37;47.53;;;30.67;;
26742;SDS011;14341;51.256;22.478;2022-12-10T00:17:40;44.35;;;28.42;;
26742;SDS011;14341;51.256;22.478;2022-12-10T00:20:44;44.75;;;30.27;;
26742;SDS011;14341;51.256;22.478;2022-12-10T00:23:47;45.47;;;29.63;;
26742;SDS011;14341;51.256;22.478;2022-12-10T00:26:52;45.80;;;30.20;;
26742;SDS011;14341;51.256;22.478;2022-12-10T00:29:56;45.75;;;29.25;;
26742;SDS011;14341;51.256;22.478;2022-12-10T00:32:59;48.70;;;30.58;;
26742;SDS011;14341;51.256;22.478;2022-12-10T00:36:03;48.50;;;28.95;;
26742;SDS011;14341;51.256;22.478;2022-12-10T00:39:07;45.03;;;28.75;;
26742;SDS011;14341;51.256;22.478;2022-12-10T00:42:14;47.17;;;31.00;;
26742;SDS011;14341;51.256;22.478;2022-12-10T00:45:17;45.95;;;30.45;;
26742;SDS011;14341;51.256;22.478;2022-12-10T00:48:24;45.88;;;29.35;;
26742;SDS011;14341;51.256;22.478;2022-12-10T00:51:27;43.05;;;28.58;;
26742;SDS011;14341;51.256;22.478;2022-12-10T00:54:30;44.00;;;28.73;;
26742;SDS011;14341;51.256;22.478;2022-12-10T00:57:35;44.95;;;29.13;;
26742;SDS011;14341;51.256;22.478;2022-12-10T01:00:38;41.40;;;28.42;;
26742;SDS011;14341;51.256;22.478;2022-12-10T01:03:42;48.95;;;31.10;;
26742;SDS011;14341;51.256;22.478;2022-12-10T01:06:47;49.58;;;31.90;;
26742;SDS011;14341;51.256;22.478;2022-12-10T01:09:51;53.90;;;33.20;;
26742;SDS011;14341;51.256;22.478;2022-12-10T01:12:57;55.63;;;34.20;;
26742;SDS011;14341;51.256;22.478;2022-12-10T01:16:00;51.83;;;33.08;;
26742;SDS011;14341;51.256;22.478;2022-12-10T01:19:04;51.60;;;33.30;;
26742;SDS011;14341;51.256;22.478;2022-12-10T01:22:08;48.55;;;31.80;;
26742;SDS011;14341;51.256;22.478;2022-12-10T01:25:11;48.72;;;31.77;;
26742;SDS011;14341;51.256;22.478;2022-12-10T01:28:16;49.22;;;31.40;;
26742;SDS011;14341;51.256;22.478;2022-12-10T01:31:20;47.58;;;31.70;;
26742;SDS011;14341;51.256;22.478;2022-12-10T01:34:24;48.35;;;30.23;;
26742;SDS011;14341;51.256;22.478;2022-12-10T01:37:30;46.92;;;30.15;;
26742;SDS011;14341;51.256;22.478;2022-12-10T01:40:36;47.15;;;30.17;;
26742;SDS011;14341;51.256;22.478;2022-12-10T01:43:58;51.95;;;31.83;;
26742;SDS011;14341;51.256;22.478;2022-12-10T01:47:03;49.97;;;32.05;;
26742;SDS011;14341;51.256;22.478;2022-12-10T01:50:07;49.85;;;29.77;;
26742;SDS011;14341;51.256;22.478;2022-12-10T01:53:11;51.80;;;31.63;;
26742;SDS011;14341;51.256;22.478;2022-12-10T01:56:16;46.95;;;29.60;;
26742;SDS011;14341;51.256;22.478;2022-12-10T01:59:22;47.42;;;30.88;;
26742;SDS011;14341;51.256;22.478;2022-12-10T02:02:38;46.58;;;28.80;;
26742;SDS011;14341;51.256;22.478;2022-12-10T02:05:49;46.03;;;29.23;;
26742;SDS011;14341;51.256;22.478;2022-12-10T02:09:04;43.75;;;28.17;;
26742;SDS011;14341;51.256;22.478;2022-12-10T02:12:14;44.90;;;28.17;;
26742;SDS011;14341;51.256;22.478;2022-12-10T02:15:23;43.95;;;27.00;;
26742;SDS011;14341;51.256;22.478;2022-12-10T02:18:29;40.25;;;26.50;;
26742;SDS011;14341;51.256;22.478;2022-12-10T02:21:39;32.40;;;20.58;;
26742;SDS011;14341;51.256;22.478;2022-12-10T02:24:45;41.78;;;27.52;;
26742;SDS011;14341;51.256;22.478;2022-12-10T02:27:53;43.28;;;26.52;;
26742;SDS011;14341;51.256;22.478;2022-12-10T02:31:03;40.67;;;27.52;;
26742;SDS011;14341;51.256;22.478;2022-12-10T02:34:08;44.00;;;26.48;;
26742;SDS011;14341;51.256;22.478;2022-12-10T02:37:14;42.28;;;28.30;;
26742;SDS011;14341;51.256;22.478;2022-12-10T02:40:26;42.22;;;27.58;;
26742;SDS011;14341;51.256;22.478;2022-12-10T02:43:35;31.33;;;20.42;;
26742;SDS011;14341;51.256;22.478;2022-12-10T02:46:40;43.25;;;27.35;;
26742;SDS011;14341;51.256;22.478;2022-12-10T02:49:49;43.63;;;28.02;;
26742;SDS011;14341;51.256;22.478;2022-12-10T02:52:56;46.78;;;29.17;;
26742;SDS011;14341;51.256;22.478;2022-12-10T02:56:04;39.97;;;26.70;;
26742;SDS011;14341;51.256;22.478;2022-12-10T02:59:22;44.63;;;27.80;;
26742;SDS011;14341;51.256;22.478;2022-12-10T03:02:36;44.95;;;28.13;;
26742;SDS011;14341;51.256;22.478;2022-12-10T03:05:49;40.25;;;26.67;;
26742;SDS011;14341;51.256;22.478;2022-12-10T03:08:58;43.45;;;27.17;;
26742;SDS011;14341;51.256;22.478;2022-12-10T03:12:06;41.78;;;26.60;;
26742;SDS011;14341;51.256;22.478;2022-12-10T03:15:16;41.90;;;27.25;;
26742;SDS011;14341;51.256;22.478;2022-12-10T03:18:23;39.47;;;25.63;;
26742;SDS011;14341;51.256;22.478;2022-12-10T03:21:29;43.10;;;25.83;;
26742;SDS011;14341;51.256;22.478;2022-12-10T03:24:41;41.20;;;25.92;;
26742;SDS011;14341;51.256;22.478;2022-12-10T03:27:46;38.72;;;26.67;;
26742;SDS011;14341;51.256;22.478;2022-12-10T03:30:52;41.95;;;26.92;;
26742;SDS011;14341;51.256;22.478;2022-12-10T03:34:00;39.25;;;25.48;;
26742;SDS011;14341;51.256;22.478;2022-12-10T03:37:04;38.33;;;25.27;;
26742;SDS011;14341;51.256;22.478;2022-12-10T03:40:08;42.42;;;25.35;;
26742;SDS011;14341;51.256;22.478;2022-12-10T03:43:14;39.47;;;24.80;;
26742;SDS011;14341;51.256;22.478;2022-12-10T03:46:17;37.10;;;24.58;;
26742;SDS011;14341;51.256;22.478;2022-12-10T03:49:22;40.13;;;25.88;;
26742;SDS011;14341;51.256;22.478;2022-12-10T03:52:26;38.20;;;25.33;;
26742;SDS011;14341;51.256;22.478;2022-12-10T03:55:29;37.17;;;24.50;;
26742;SDS011;14341;51.256;22.478;2022-12-10T03:58:34;41.00;;;26.02;;
26742;SDS011;14341;51.256;22.478;2022-12-10T04:01:37;40.08;;;25.83;;
26742;SDS011;14341;51.256;22.478;2022-12-10T04:04:42;37.65;;;24.80;;
26742;SDS011;14341;51.256;22.478;2022-12-10T04:07:46;38.08;;;25.67;;
26742;SDS011;14341;51.256;22.478;2022-12-10T04:10:49;42.03;;;25.95;;
26742;SDS011;14341;51.256;22.478;2022-12-10T04:13:53;38.10;;;25.50;;
26742;SDS011;14341;51.256;22.478;2022-12-10T04:17:14;40.10;;;26.13;;
26742;SDS011;14341;51.256;22.478;2022-12-10T04:20:20;38.97;;;26.02;;
26742;SDS011;14341;51.256;22.478;2022-12-10T04:23:41;40.17;;;25.40;;
26742;SDS011;14341;51.256;22.478;2022-12-10T04:30:07;42.00;;;26.02;;
26742;SDS011;14341;51.256;22.478;2022-12-10T04:33:12;37.25;;;24.85;;
26742;SDS011;14341;51.256;22.478;2022-12-10T04:36:17;39.80;;;26.48;;
26742;SDS011;14341;51.256;22.478;2022-12-10T04:39:20;40.38;;;24.98;;
26742;SDS011;14341;51.256;22.478;2022-12-10T04:42:24;38.97;;;26.08;;
26742;SDS011;14341;51.256;22.478;2022-12-10T04:45:28;41.17;;;26.80;;
26742;SDS011;14341;51.256;22.478;2022-12-10T04:48:31;43.75;;;26.92;;
26742;SDS011;14341;51.256;22.478;2022-12-10T04:51:36;43.88;;;26.75;;
26742;SDS011;14341;51.256;22.478;2022-12-10T04:54:39;44.35;;;27.73;;
26742;SDS011;14341;51.256;22.478;2022-12-10T04:57:43;43.47;;;27.33;;
26742;SDS011;14341;51.256;22.478;2022-12-10T05:00:46;44.25;;;27.77;;
26742;SDS011;14341;51.256;22.478;2022-12-10T05:03:49;40.22;;;26.20;;
26742;SDS011;14341;51.256;22.478;2022-12-10T05:06:55;40.67;;;25.88;;
26742;SDS011;14341;51.256;22.478;2022-12-10T05:09:59;40.72;;;26.15;;
26742;SDS011;14341;51.256;22.478;2022-12-10T05:13:04;43.45;;;28.00;;
26742;SDS011;14341;51.256;22.478;2022-12-10T05:16:09;45.85;;;27.70;;
26742;SDS011;14341;51.256;22.478;2022-12-10T05:19:15;44.03;;;28.30;;
26742;SDS011;14341;51.256;22.478;2022-12-10T05:22:23;44.00;;;28.38;;
26742;SDS011;14341;51.256;22.478;2022-12-10T05:25:44;43.80;;;27.92;;
26742;SDS011;14341;51.256;22.478;2022-12-10T05:28:55;46.35;;;30.10;;
26742;SDS011;14341;51.256;22.478;2022-12-10T05:31:59;48.50;;;29.67;;
26742;SDS011;14341;51.256;22.478;2022-12-10T05:35:03;48.92;;;30.33;;
26742;SDS011;14341;51.256;22.478;2022-12-10T05:38:09;49.05;;;31.05;;
26742;SDS011;14341;51.256;22.478;2022-12-10T05:41:13;56.60;;;32.67;;
26742;SDS011;14341;51.256;22.478;2022-12-10T05:44:17;48.35;;;31.20;;
26742;SDS011;14341;51.256;22.478;2022-12-10T05:47:20;46.13;;;29.08;;
26742;SDS011;14341;51.256;22.478;2022-12-10T05:50:24;51.95;;;31.52;;
26742;SDS011;14341;51.256;22.478;2022-12-10T05:53:28;53.00;;;30.70;;
26742;SDS011;14341;51.256;22.478;2022-12-10T05:56:31;46.88;;;29.15;;
26742;SDS011;14341;51.256;22.478;2022-12-10T05:59:35;50.88;;;30.17;;
26742;SDS011;14341;51.256;22.478;2022-12-10T06:02:40;45.35;;;28.50;;
26742;SDS011;14341;51.256;22.478;2022-12-10T06:05:43;50.97;;;29.67;;
26742;SDS011;14341;51.256;22.478;2022-12-10T06:08:48;53.75;;;30.67;;
26742;SDS011;14341;51.256;22.478;2022-12-10T06:11:51;50.80;;;31.27;;
26742;SDS011;14341;51.256;22.478;2022-12-10T06:14:55;57.67;;;31.48;;
26742;SDS011;14341;51.256;22.478;2022-12-10T06:17:58;56.38;;;32.22;;
26742;SDS011;14341;51.256;22.478;2022-12-10T06:21:02;56.50;;;33.00;;
26742;SDS011;14341;51.256;22.478;2022-12-10T06:24:07;65.35;;;34.75;;
26742;SDS011;14341;51.256;22.478;2022-12-10T06:27:11;65.65;;;37.25;;
26742;SDS011;14341;51.256;22.478;2022-12-10T06:30:15;67.28;;;36.88;;
26742;SDS011;14341;51.256;22.478;2022-12-10T06:33:19;64.57;;;36.00;;
26742;SDS011;14341;51.256;22.478;2022-12-10T06:36:22;67.15;;;35.75;;
26742;SDS011;14341;51.256;22.478;2022-12-10T06:39:27;60.85;;;34.50;;
26742;SDS011;14341;51.256;22.478;2022-12-10T06:42:30;63.60;;;35.72;;
26742;SDS011;14341;51.256;22.478;2022-12-10T06:45:33;58.05;;;34.03;;
26742;SDS011;14341;51.256;22.478;2022-12-10T06:48:40;63.13;;;34.72;;
26742;SDS011;14341;51.256;22.478;2022-12-10T06:51:43;62.42;;;35.17;;
26742;SDS011;14341;51.256;22.478;2022-12-10T06:54:48;61.85;;;34.33;;
26742;SDS011;14341;51.256;22.478;2022-12-10T06:57:51;59.28;;;34.45;;
26742;SDS011;14341;51.256;22.478;2022-12-10T07:01:01;56.35;;;32.78;;
26742;SDS011;14341;51.256;22.478;2022-12-10T07:04:05;55.58;;;32.55;;
26742;SDS011;14341;51.256;22.478;2022-12-10T07:07:08;61.22;;;34.35;;
26742;SDS011;14341;51.256;22.478;2022-12-10T07:10:13;62.03;;;33.45;;
26742;SDS011;14341;51.256;22.478;2022-12-10T07:13:16;56.13;;;31.88;;
26742;SDS011;14341;51.256;22.478;2022-12-10T07:16:20;51.75;;;31.17;;
26742;SDS011;14341;51.256;22.478;2022-12-10T07:19:25;55.05;;;33.17;;
26742;SDS011;14341;51.256;22.478;2022-12-10T07:22:28;56.38;;;33.13;;
26742;SDS011;14341;51.256;22.478;2022-12-10T07:25:33;54.47;;;33.58;;
26742;SDS011;14341;51.256;22.478;2022-12-10T07:28:37;56.40;;;34.55;;
26742;SDS011;14341;51.256;22.478;2022-12-10T07:31:53;63.42;;;36.67;;
26742;SDS011;14341;51.256;22.478;2022-12-10T07:34:57;62.10;;;37.33;;
26742;SDS011;14341;51.256;22.478;2022-12-10T07:38:00;60.65;;;35.70;;
26742;SDS011;14341;51.256;22.478;2022-12-10T07:41:05;71.40;;;40.33;;
26742;SDS011;14341;51.256;22.478;2022-12-10T07:44:10;67.63;;;40.50;;
26742;SDS011;14341;51.256;22.478;2022-12-10T07:47:14;76.78;;;43.33;;
26742;SDS011;14341;51.256;22.478;2022-12-10T07:50:18;87.20;;;47.25;;
26742;SDS011;14341;51.256;22.478;2022-12-10T07:53:21;77.55;;;46.25;;
26742;SDS011;14341;51.256;22.478;2022-12-10T07:56:26;70.00;;;39.35;;
26742;SDS011;14341;51.256;22.478;2022-12-10T07:59:29;69.45;;;39.88;;
26742;SDS011;14341;51.256;22.478;2022-12-10T08:02:33;63.35;;;37.28;;
26742;SDS011;14341;51.256;22.478;2022-12-10T08:05:37;64.30;;;37.35;;
26742;SDS011;14341;51.256;22.478;2022-12-10T08:08:41;63.45;;;36.33;;
26742;SDS011;14341;51.256;22.478;2022-12-10T08:11:47;62.50;;;36.65;;
26742;SDS011;14341;51.256;22.478;2022-12-10T08:14:50;60.33;;;36.60;;
26742;SDS011;14341;51.256;22.478;2022-12-10T08:17:53;63.53;;;37.63;;
26742;SDS011;14341;51.256;22.478;2022-12-10T08:20:57;56.75;;;34.92;;
26742;SDS011;14341;51.256;22.478;2022-12-10T08:24:00;59.60;;;33.65;;
26742;SDS011;14341;51.256;22.478;2022-12-10T08:27:05;55.97;;;34.30;;
26742;SDS011;14341;51.256;22.478;2022-12-10T08:30:09;54.45;;;32.63;;
26742;SDS011;14341;51.256;22.478;2022-12-10T08:33:13;58.97;;;33.00;;
26742;SDS011;14341;51.256;22.478;2022-12-10T08:36:17;56.17;;;34.05;;
26742;SDS011;14341;51.256;22.478;2022-12-10T08:39:21;56.92;;;33.20;;
26742;SDS011;14341;51.256;22.478;2022-12-10T08:42:25;53.22;;;32.75;;
26742;SDS011;14341;51.256;22.478;2022-12-10T08:45:29;55.03;;;33.78;;
26742;SDS011;14341;51.256;22.478;2022-12-10T08:48:33;58.60;;;36.10;;
26742;SDS011;14341;51.256;22.478;2022-12-10T08:51:37;61.95;;;35.78;;
26742;SDS011;14341;51.256;22.478;2022-12-10T08:54:41;52.63;;;33.33;;
26742;SDS011;14341;51.256;22.478;2022-12-10T08:57:46;68.72;;;36.85;;
26742;SDS011;14341;51.256;22.478;2022-12-10T09:00:49;73.32;;;39.67;;
26742;SDS011;14341;51.256;22.478;2022-12-10T09:03:53;64.72;;;39.38;;
26742;SDS011;14341;51.256;22.478;2022-12-10T09:06:56;63.83;;;36.10;;
26742;SDS011;14341;51.256;22.478;2022-12-10T09:10:00;64.57;;;35.38;;
26742;SDS011;14341;51.256;22.478;2022-12-10T09:13:04;58.33;;;34.90;;
26742;SDS011;14341;51.256;22.478;2022-12-10T09:16:08;54.72;;;34.08;;
26742;SDS011;14341;51.256;22.478;2022-12-10T09:19:12;56.13;;;32.42;;
26742;SDS011;14341;51.256;22.478;2022-12-10T09:22:20;60.28;;;33.00;;
26742;SDS011;14341;51.256;22.478;2022-12-10T09:25:24;52.28;;;30.42;;
26742;SDS011;14341;51.256;22.478;2022-12-10T09:28:28;47.42;;;29.15;;
26742;SDS011;14341;51.256;22.478;2022-12-10T09:31:32;58.28;;;35.17;;
26742;SDS011;14341;51.256;22.478;2022-12-10T09:34:35;56.13;;;32.63;;
26742;SDS011;14341;51.256;22.478;2022-12-10T09:37:38;55.15;;;32.22;;
26742;SDS011;14341;51.256;22.478;2022-12-10T09:40:43;53.10;;;32.30;;
26742;SDS011;14341;51.256;22.478;2022-12-10T09:43:53;54.85;;;30.58;;
26742;SDS011;14341;51.256;22.478;2022-12-10T09:47:02;52.00;;;31.95;;
26742;SDS011;14341;51.256;22.478;2022-12-10T09:50:11;57.88;;;35.80;;
26742;SDS011;14341;51.256;22.478;2022-12-10T09:53:21;66.97;;;39.20;;
26742;SDS011;14341;51.256;22.478;2022-12-10T09:56:28;80.93;;;45.95;;
26742;SDS011;14341;51.256;22.478;2022-12-10T09:59:37;65.55;;;36.03;;
26742;SDS011;14341;51.256;22.478;2022-12-10T10:02:43;53.00;;;32.03;;
26742;SDS011;14341;51.256;22.478;2022-12-10T10:05:48;49.22;;;29.83;;
26742;SDS011;14341;51.256;22.478;2022-12-10T10:08:56;68.10;;;38.92;;
26742;SDS011;14341;51.256;22.478;2022-12-10T10:12:01;63.50;;;36.30;;
26742;SDS011;14341;51.256;22.478;2022-12-10T10:15:12;57.25;;;32.22;;
26742;SDS011;14341;51.256;22.478;2022-12-10T10:18:18;55.97;;;32.40;;
26742;SDS011;14341;51.256;22.478;2022-12-10T10:21:33;53.25;;;30.67;;
26742;SDS011;14341;51.256;22.478;2022-12-10T10:24:42;47.72;;;28.73;;
26742;SDS011;14341;51.256;22.478;2022-12-10T10:27:47;53.47;;;31.73;;
26742;SDS011;14341;51.256;22.478;2022-12-10T10:30:52;51.70;;;29.48;;
26742;SDS011;14341;51.256;22.478;2022-12-10T10:33:58;49.85;;;29.83;;
26742;SDS011;14341;51.256;22.478;2022-12-10T10:37:02;51.55;;;30.88;;
26742;SDS011;14341;51.256;22.478;2022-12-10T10:40:12;54.00;;;32.40;;
26742;SDS011;14341;51.256;22.478;2022-12-10T10:43:26;55.67;;;30.60;;
26742;SDS011;14341;51.256;22.478;2022-12-10T10:46:35;57.30;;;33.10;;
26742;SDS011;14341;51.256;22.478;2022-12-10T10:49:43;53.55;;;30.52;;
26742;SDS011;14341;51.256;22.478;2022-12-10T10:52:47;54.08;;;33.28;;
26742;SDS011;14341;51.256;22.478;2022-12-10T10:55:50;52.95;;;30.70;;
26742;SDS011;14341;51.256;22.478;2022-12-10T10:58:57;53.90;;;32.15;;
26742;SDS011;14341;51.256;22.478;2022-12-10T11:02:13;52.50;;;31.52;;
26742;SDS011;14341;51.256;22.478;2022-12-10T11:05:20;45.90;;;26.20;;
26742;SDS011;14341;51.256;22.478;2022-12-10T11:08:37;51.78;;;29.52;;
26742;SDS011;14341;51.256;22.478;2022-12-10T11:11:42;46.72;;;25.70;;
26742;SDS011;14341;51.256;22.478;2022-12-10T11:14:53;46.15;;;27.25;;
26742;SDS011;14341;51.256;22.478;2022-12-10T11:17:58;44.67;;;27.83;;
26742;SDS011;14341;51.256;22.478;2022-12-10T11:21:03;46.10;;;26.98;;
26742;SDS011;14341;51.256;22.478;2022-12-10T11:24:09;39.72;;;23.67;;
26742;SDS011;14341;51.256;22.478;2022-12-10T11:27:15;41.33;;;23.88;;
26742;SDS011;14341;51.256;22.478;2022-12-10T11:30:25;41.80;;;25.67;;
26742;SDS011;14341;51.256;22.478;2022-12-10T11:33:31;42.72;;;25.83;;
26742;SDS011;14341;51.256;22.478;2022-12-10T11:36:44;43.45;;;27.42;;
26742;SDS011;14341;51.256;22.478;2022-12-10T11:43:37;44.28;;;26.33;;
26742;SDS011;14341;51.256;22.478;2022-12-10T11:50:26;49.00;;;28.90;;
26742;SDS011;14341;51.256;22.478;2022-12-10T11:53:39;48.58;;;26.98;;
26742;SDS011;14341;51.256;22.478;2022-12-10T11:56:54;50.67;;;28.60;;
26742;SDS011;14341;51.256;22.478;2022-12-10T12:00:13;47.40;;;29.60;;
26742;SDS011;14341;51.256;22.478;2022-12-10T12:07:14;45.63;;;27.92;;
26742;SDS011;14341;51.256;22.478;2022-12-10T12:10:41;41.20;;;25.55;;
26742;SDS011;14341;51.256;22.478;2022-12-10T12:14:05;39.78;;;25.45;;
26742;SDS011;14341;51.256;22.478;2022-12-10T12:17:11;39.50;;;25.42;;
26742;SDS011;14341;51.256;22.478;2022-12-10T12:20:20;40.47;;;24.75;;
26742;SDS011;14341;51.256;22.478;2022-12-10T12:23:29;42.53;;;26.58;;
26742;SDS011;14341;51.256;22.478;2022-12-10T12:26:40;41.50;;;25.65;;
26742;SDS011;14341;51.256;22.478;2022-12-10T12:29:51;44.45;;;25.70;;
26742;SDS011;14341;51.256;22.478;2022-12-10T12:33:06;46.40;;;26.92;;
26742;SDS011;14341;51.256;22.478;2022-12-10T12:36:14;42.75;;;25.52;;
26742;SDS011;14341;51.256;22.478;2022-12-10T12:39:28;54.70;;;31.85;;
26742;SDS011;14341;51.256;22.478;2022-12-10T12:42:38;52.50;;;29.83;;
26742;SDS011;14341;51.256;22.478;2022-12-10T12:45:47;49.53;;;30.05;;
26742;SDS011;14341;51.256;22.478;2022-12-10T12:48:55;50.45;;;30.60;;
26742;SDS011;14341;51.256;22.478;2022-12-10T12:52:05;49.70;;;28.77;;
26742;SDS011;14341;51.256;22.478;2022-12-10T12:55:24;53.22;;;29.40;;
26742;SDS011;14341;51.256;22.478;2022-12-10T12:58:35;55.58;;;31.52;;
26742;SDS011;14341;51.256;22.478;2022-12-10T13:01:43;54.67;;;27.75;;
26742;SDS011;14341;51.256;22.478;2022-12-10T13:04:53;63.97;;;35.17;;
26742;SDS011;14341;51.256;22.478;2022-12-10T13:11:33;57.95;;;34.10;;
26742;SDS011;14341;51.256;22.478;2022-12-10T13:14:49;58.67;;;32.65;;
26742;SDS011;14341;51.256;22.478;2022-12-10T13:18:04;60.03;;;33.97;;
26742;SDS011;14341;51.256;22.478;2022-12-10T13:21:26;65.25;;;36.22;;
26742;SDS011;14341;51.256;22.478;2022-12-10T13:24:44;57.80;;;32.40;;
26742;SDS011;14341;51.256;22.478;2022-12-10T13:28:16;60.30;;;32.88;;
26742;SDS011;14341;51.256;22.478;2022-12-10T13:31:34;63.67;;;35.00;;
26742;SDS011;14341;51.256;22.478;2022-12-10T13:34:39;58.30;;;34.20;;
26742;SDS011;14341;51.256;22.478;2022-12-10T13:37:53;57.78;;;32.95;;
26742;SDS011;14341;51.256;22.478;2022-12-10T13:41:00;63.08;;;35.20;;
26742;SDS011;14341;51.256;22.478;2022-12-10T13:44:31;79.88;;;40.78;;
26742;SDS011;14341;51.256;22.478;2022-12-10T13:47:42;65.93;;;36.75;;
26742;SDS011;14341;51.256;22.478;2022-12-10T13:50:48;49.33;;;27.93;;
26742;SDS011;14341;51.256;22.478;2022-12-10T13:54:00;61.72;;;35.53;;
26742;SDS011;14341;51.256;22.478;2022-12-10T13:57:23;62.85;;;35.88;;
26742;SDS011;14341;51.256;22.478;2022-12-10T14:00:47;67.22;;;37.95;;
26742;SDS011;14341;51.256;22.478;2022-12-10T14:03:58;488.30;;;185.68;;
26742;SDS011;14341;51.256;22.478;2022-12-10T14:07:13;342.88;;;125.22;;
26742;SDS011;14341;51.256;22.478;2022-12-10T14:10:26;243.98;;;94.13;;
26742;SDS011;14341;51.256;22.478;2022-12-10T14:13:39;211.48;;;98.60;;
26742;SDS011;14341;51.256;22.478;2022-12-10T14:16:47;130.05;;;63.33;;
26742;SDS011;14341;51.256;22.478;2022-12-10T14:19:57;86.75;;;44.47;;
26742;SDS011;14341;51.256;22.478;2022-12-10T14:23:03;67.07;;;34.85;;
26742;SDS011;14341;51.256;22.478;2022-12-10T14:26:26;98.18;;;47.20;;
26742;SDS011;14341;51.256;22.478;2022-12-10T14:29:30;60.45;;;32.38;;
26742;SDS011;14341;51.256;22.478;2022-12-10T14:32:36;64.03;;;33.85;;
26742;SDS011;14341;51.256;22.478;2022-12-10T14:35:41;62.90;;;35.05;;
26742;SDS011;14341;51.256;22.478;2022-12-10T14:38:45;60.88;;;32.83;;
26742;SDS011;14341;51.256;22.478;2022-12-10T14:41:50;73.22;;;40.38;;
26742;SDS011;14341;51.256;22.478;2022-12-10T14:44:56;77.85;;;40.38;;
26742;SDS011;14341;51.256;22.478;2022-12-10T14:48:03;72.47;;;38.55;;
26742;SDS011;14341;51.256;22.478;2022-12-10T14:51:12;69.15;;;36.92;;
26742;SDS011;14341;51.256;22.478;2022-12-10T14:54:24;59.95;;;32.15;;
26742;SDS011;14341;51.256;22.478;2022-12-10T14:57:30;58.33;;;30.95;;
26742;SDS011;14341;51.256;22.478;2022-12-10T15:00:37;60.38;;;32.20;;
26742;SDS011;14341;51.256;22.478;2022-12-10T15:03:45;60.42;;;31.67;;
26742;SDS011;14341;51.256;22.478;2022-12-10T15:06:50;59.13;;;31.35;;
26742;SDS011;14341;51.256;22.478;2022-12-10T15:09:56;61.63;;;33.22;;
26742;SDS011;14341;51.256;22.478;2022-12-10T15:13:00;67.03;;;35.88;;
26742;SDS011;14341;51.256;22.478;2022-12-10T15:16:05;65.38;;;36.70;;
26742;SDS011;14341;51.256;22.478;2022-12-10T15:19:20;70.05;;;35.78;;
26742;SDS011;14341;51.256;22.478;2022-12-10T15:22:26;69.53;;;33.20;;
26742;SDS011;14341;51.256;22.478;2022-12-10T15:25:41;60.00;;;31.08;;
26742;SDS011;14341;51.256;22.478;2022-12-10T15:28:48;58.58;;;31.95;;
26742;SDS011;14341;51.256;22.478;2022-12-10T15:31:54;61.65;;;32.30;;
26742;SDS011;14341;51.256;22.478;2022-12-10T15:35:03;67.43;;;34.20;;
26742;SDS011;14341;51.256;22.478;2022-12-10T15:38:15;65.65;;;33.20;;
26742;SDS011;14341;51.256;22.478;2022-12-10T15:41:21;65.47;;;32.58;;
26742;SDS011;14341;51.256;22.478;2022-12-10T15:44:36;69.30;;;33.58;;
26742;SDS011;14341;51.256;22.478;2022-12-10T15:47:41;66.65;;;35.05;;
26742;SDS011;14341;51.256;22.478;2022-12-10T15:50:47;64.65;;;31.60;;
26742;SDS011;14341;51.256;22.478;2022-12-10T15:53:51;58.58;;;29.80;;
26742;SDS011;14341;51.256;22.478;2022-12-10T15:56:55;55.15;;;28.73;;
26742;SDS011;14341;51.256;22.478;2022-12-10T16:00:00;52.28;;;27.67;;
26742;SDS011;14341;51.256;22.478;2022-12-10T16:03:13;51.70;;;29.17;;
26742;SDS011;14341;51.256;22.478;2022-12-10T16:06:20;61.42;;;34.33;;
26742;SDS011;14341;51.256;22.478;2022-12-10T16:09:24;232.82;;;128.75;;
26742;SDS011;14341;51.256;22.478;2022-12-10T16:12:28;79.60;;;47.28;;
26742;SDS011;14341;51.256;22.478;2022-12-10T16:15:40;77.65;;;44.08;;
26742;SDS011;14341;51.256;22.478;2022-12-10T16:18:47;73.55;;;40.65;;
26742;SDS011;14341;51.256;22.478;2022-12-10T16:21:52;66.13;;;36.35;;
26742;SDS011;14341;51.256;22.478;2022-12-10T16:24:56;60.50;;;33.88;;
26742;SDS011;14341;51.256;22.478;2022-12-10T16:28:00;88.72;;;49.67;;
26742;SDS011;14341;51.256;22.478;2022-12-10T16:31:07;77.10;;;42.42;;
26742;SDS011;14341;51.256;22.478;2022-12-10T16:34:14;80.75;;;44.22;;
26742;SDS011;14341;51.256;22.478;2022-12-10T16:37:19;85.82;;;41.47;;
26742;SDS011;14341;51.256;22.478;2022-12-10T16:40:29;82.75;;;44.08;;
26742;SDS011;14341;51.256;22.478;2022-12-10T16:43:33;82.70;;;43.13;;
26742;SDS011;14341;51.256;22.478;2022-12-10T16:46:37;93.68;;;42.90;;
26742;SDS011;14341;51.256;22.478;2022-12-10T16:49:40;82.85;;;41.28;;
26742;SDS011;14341;51.256;22.478;2022-12-10T16:52:46;83.80;;;37.40;;
26742;SDS011;14341;51.256;22.478;2022-12-10T16:55:49;69.90;;;34.90;;
26742;SDS011;14341;51.256;22.478;2022-12-10T16:58:53;66.57;;;32.50;;
26742;SDS011;14341;51.256;22.478;2022-12-10T17:01:56;63.90;;;31.83;;
26742;SDS011;14341;51.256;22.478;2022-12-10T17:05:00;54.65;;;29.02;;
26742;SDS011;14341;51.256;22.478;2022-12-10T17:08:05;62.70;;;31.13;;
26742;SDS011;14341;51.256;22.478;2022-12-10T17:11:13;72.88;;;38.72;;
26742;SDS011;14341;51.256;22.478;2022-12-10T17:14:38;78.30;;;41.67;;
26742;SDS011;14341;51.256;22.478;2022-12-10T17:17:43;91.85;;;50.40;;
26742;SDS011;14341;51.256;22.478;2022-12-10T17:20:46;92.80;;;48.67;;
26742;SDS011;14341;51.256;22.478;2022-12-10T17:23:58;88.63;;;45.88;;
26742;SDS011;14341;51.256;22.478;2022-12-10T17:27:03;176.13;;;95.70;;
26742;SDS011;14341;51.256;22.478;2022-12-10T17:30:10;83.45;;;43.55;;
26742;SDS011;14341;51.256;22.478;2022-12-10T17:33:16;86.40;;;44.40;;
26742;SDS011;14341;51.256;22.478;2022-12-10T17:36:22;80.78;;;42.35;;
26742;SDS011;14341;51.256;22.478;2022-12-10T17:39:27;73.47;;;36.75;;
26742;SDS011;14341;51.256;22.478;2022-12-10T17:42:31;98.53;;;47.72;;
26742;SDS011;14341;51.256;22.478;2022-12-10T17:45:36;100.15;;;50.58;;
26742;SDS011;14341;51.256;22.478;2022-12-10T17:48:40;94.50;;;47.15;;
26742;SDS011;14341;51.256;22.478;2022-12-10T17:51:43;94.82;;;49.33;;
26742;SDS011;14341;51.256;22.478;2022-12-10T17:54:49;97.72;;;54.22;;
26742;SDS011;14341;51.256;22.478;2022-12-10T17:57:53;101.95;;;51.38;;
26742;SDS011;14341;51.256;22.478;2022-12-10T18:00:58;94.78;;;41.33;;
26742;SDS011;14341;51.256;22.478;2022-12-10T18:04:02;95.50;;;46.80;;
26742;SDS011;14341;51.256;22.478;2022-12-10T18:07:08;255.35;;;154.55;;
26742;SDS011;14341;51.256;22.478;2022-12-10T18:10:17;94.00;;;44.78;;
26742;SDS011;14341;51.256;22.478;2022-12-10T18:13:23;125.97;;;65.38;;
26742;SDS011;14341;51.256;22.478;2022-12-10T18:16:28;164.15;;;77.97;;